createdAt,value
2018-11-04T00:00:02.771Z,21.90
2018-11-04T00:05:00.101Z,19.67
2018-11-04T00:09:58.856Z,21.87
2018-11-04T00:14:56.311Z,23.17
2018-11-04T00:19:54.853Z,23.23
2018-11-04T00:24:52.349Z,22.40
2018-11-04T00:29:49.977Z,24.40
2018-11-04T00:34:47.363Z,21.60
2018-11-04T00:39:44.790Z,22.90
2018-11-04T00:44:42.240Z,25.13
2018-11-04T00:49:39.664Z,23.30
2018-11-04T00:54:37.102Z,22.73
2018-11-04T00:59:34.535Z,25.33
2018-11-04T01:04:31.952Z,24.77
2018-11-04T01:09:32.392Z,24.40
2018-11-04T01:14:29.909Z,25.00
2018-11-04T01:19:27.328Z,25.87
2018-11-04T01:24:24.831Z,26.00
2018-11-04T01:29:22.192Z,22.67
2018-11-04T01:34:19.644Z,26.03
2018-11-04T01:39:17.063Z,28.13
2018-11-04T01:44:14.496Z,24.73
2018-11-04T01:49:11.969Z,24.00
2018-11-04T01:54:09.398Z,25.20
2018-11-04T01:59:06.894Z,24.77
2018-11-04T02:04:04.604Z,26.73
2018-11-04T02:09:02.122Z,24.77
2018-11-04T02:13:59.546Z,25.10
2018-11-04T02:18:57.009Z,24.27
2018-11-04T02:23:54.428Z,25.67
2018-11-04T02:28:51.851Z,25.80
2018-11-04T02:33:49.292Z,27.33
2018-11-04T02:38:46.708Z,25.40
2018-11-04T02:43:44.121Z,25.47
2018-11-04T02:48:41.543Z,26.10
2018-11-04T02:53:38.977Z,25.10
2018-11-04T02:58:36.421Z,25.93
2018-11-04T03:03:33.848Z,24.23
2018-11-04T03:08:31.273Z,25.30
2018-11-04T03:13:28.756Z,26.07
2018-11-04T03:18:26.198Z,23.70
2018-11-04T03:23:23.640Z,26.13
2018-11-04T03:28:21.102Z,24.73
2018-11-04T03:33:18.536Z,24.13
2018-11-04T03:38:15.968Z,26.43
2018-11-04T03:43:13.408Z,27.27
2018-11-04T03:48:10.845Z,26.40
2018-11-04T03:53:08.307Z,26.47
2018-11-04T03:58:05.742Z,25.57
2018-11-04T04:03:03.186Z,29.10
2018-11-04T04:08:00.608Z,29.90
2018-11-04T04:12:58.074Z,28.90
2018-11-04T04:17:55.510Z,26.80
2018-11-04T04:22:52.950Z,29.03
2018-11-04T04:27:50.397Z,27.20
2018-11-04T04:32:47.833Z,28.83
2018-11-04T04:37:45.292Z,29.27
2018-11-04T04:42:42.721Z,27.77
2018-11-04T04:47:40.148Z,28.30
2018-11-04T04:52:37.581Z,28.57
2018-11-04T04:57:35.016Z,31.00
2018-11-04T05:02:32.456Z,32.43
2018-11-04T05:07:29.893Z,32.07
2018-11-04T05:12:27.402Z,33.63
2018-11-04T05:17:24.856Z,33.60
2018-11-04T05:22:22.345Z,33.83
2018-11-04T05:27:19.776Z,32.40
2018-11-04T05:32:17.209Z,33.30
2018-11-04T05:37:14.693Z,33.27
2018-11-04T05:42:12.131Z,32.57
2018-11-04T05:47:09.605Z,35.23
2018-11-04T05:52:07.094Z,34.90
2018-11-04T05:57:05.233Z,32.10
2018-11-04T06:02:02.692Z,35.30
2018-11-04T06:07:00.313Z,34.67
2018-11-04T06:11:58.250Z,33.90
2018-11-04T06:16:56.666Z,33.57
2018-11-04T06:21:54.139Z,32.87
2018-11-04T06:26:51.612Z,34.40
2018-11-04T06:31:49.076Z,32.13
2018-11-04T06:36:46.540Z,33.40
2018-11-04T06:41:43.996Z,32.77
2018-11-04T06:46:42.627Z,29.43
2018-11-04T06:51:40.091Z,29.80
2018-11-04T06:56:37.590Z,31.47
2018-11-04T07:01:35.053Z,30.80
2018-11-04T07:06:32.520Z,31.87
2018-11-04T07:11:30.005Z,32.30
2018-11-04T07:16:32.111Z,30.07
2018-11-04T07:21:29.555Z,32.23
2018-11-04T07:26:27.023Z,27.10
2018-11-04T07:31:24.558Z,31.83
2018-11-04T07:36:22.058Z,31.20
2018-11-04T07:41:19.980Z,32.17
2018-11-04T07:46:23.271Z,30.40
2018-11-04T07:51:20.774Z,30.53
2018-11-04T07:56:18.205Z,30.80
2018-11-04T08:01:15.759Z,31.93
2018-11-04T08:06:13.202Z,28.90
2018-11-04T08:11:10.693Z,28.03
2018-11-04T08:16:12.974Z,30.23
2018-11-04T08:21:10.416Z,29.47
2018-11-04T08:26:07.914Z,30.23
2018-11-04T08:31:05.569Z,30.03
2018-11-04T08:36:03.040Z,30.17
2018-11-04T08:41:00.520Z,28.47
2018-11-04T08:46:09.631Z,29.60
2018-11-04T08:51:07.483Z,29.30
2018-11-04T08:56:05.220Z,30.50
2018-11-04T09:01:02.671Z,27.87
2018-11-04T09:06:00.173Z,28.13
2018-11-04T09:10:57.614Z,29.00
2018-11-04T09:16:02.884Z,29.30
2018-11-04T09:21:00.495Z,28.90
2018-11-04T09:25:57.956Z,28.90
2018-11-04T09:30:55.408Z,28.20
2018-11-04T09:35:53.116Z,27.73
2018-11-04T09:40:50.366Z,29.33
2018-11-04T09:46:01.878Z,28.70
2018-11-04T09:51:02.753Z,27.43
2018-11-04T09:56:02.531Z,26.77
2018-11-04T10:01:00.118Z,28.40
2018-11-04T10:05:57.653Z,27.40
2018-11-04T10:10:55.108Z,26.87
2018-11-04T10:15:55.298Z,28.57
2018-11-04T10:20:53.395Z,27.10
2018-11-04T10:25:50.391Z,29.07
2018-11-04T10:30:47.865Z,27.60
2018-11-04T10:35:45.345Z,29.80
2018-11-04T10:40:42.780Z,29.70
2018-11-04T10:45:43.456Z,28.40
2018-11-04T10:50:40.978Z,28.80
2018-11-04T10:55:38.489Z,30.03
2018-11-04T11:00:41.638Z,28.67
2018-11-04T11:05:39.097Z,29.70
2018-11-04T11:10:36.573Z,28.20
2018-11-04T11:15:34.032Z,28.93
2018-11-04T11:20:31.518Z,29.87
2018-11-04T11:25:28.953Z,28.83
2018-11-04T11:30:26.456Z,29.00
2018-11-04T11:35:23.913Z,30.17
2018-11-04T11:40:21.408Z,27.43
2018-11-04T11:45:22.468Z,27.70
2018-11-04T11:50:19.926Z,28.80
2018-11-04T11:55:21.269Z,27.50
2018-11-04T12:00:23.559Z,26.50
2018-11-04T12:10:29.132Z,26.30
2018-11-04T12:15:26.661Z,29.53
2018-11-04T12:20:24.100Z,28.90
2018-11-04T12:25:21.571Z,27.93
2018-11-04T12:30:19.090Z,28.67
2018-11-04T12:35:16.600Z,26.80
2018-11-04T12:40:14.075Z,29.73
2018-11-04T12:45:12.485Z,26.77
2018-11-04T12:50:10.876Z,26.47
2018-11-04T12:55:09.861Z,24.27
2018-11-04T13:00:10.617Z,26.20
2018-11-04T13:05:09.034Z,25.90
2018-11-04T13:10:08.369Z,25.20
2018-11-04T13:15:06.558Z,25.30
2018-11-04T13:20:04.384Z,24.03
2018-11-04T13:25:01.856Z,25.73
2018-11-04T13:29:59.332Z,24.80
2018-11-04T13:34:56.848Z,23.30
2018-11-04T13:39:54.313Z,26.37
2018-11-04T13:44:51.824Z,24.83
2018-11-04T13:49:49.250Z,23.47
2018-11-04T13:54:47.046Z,22.50
2018-11-04T13:59:44.515Z,22.73
2018-11-04T14:04:41.958Z,24.00
2018-11-04T14:09:39.418Z,21.37
2018-11-04T14:14:36.872Z,20.90
2018-11-04T14:19:34.392Z,20.87
2018-11-04T14:24:31.856Z,20.13
2018-11-04T14:29:29.301Z,20.13
2018-11-04T14:34:26.748Z,20.17
2018-11-04T14:39:24.222Z,19.73
2018-11-04T14:44:21.687Z,18.30
2018-11-04T14:49:19.221Z,19.33
2018-11-04T14:54:17.138Z,20.27
2018-11-04T14:59:14.633Z,19.87
2018-11-04T15:04:12.097Z,19.00
2018-11-04T15:09:09.584Z,19.00
2018-11-04T15:14:07.064Z,17.70
2018-11-04T15:19:04.760Z,19.17
2018-11-04T15:24:02.218Z,17.00
2018-11-04T15:28:59.658Z,18.10
2018-11-04T15:33:57.152Z,19.37
2018-11-04T15:38:54.600Z,17.40
2018-11-04T15:43:52.145Z,18.63
2018-11-04T15:48:49.720Z,18.30
2018-11-04T15:53:47.192Z,16.83
2018-11-04T15:58:44.631Z,18.40
2018-11-04T16:03:42.092Z,17.83
2018-11-04T16:08:39.550Z,15.13
2018-11-04T16:13:37.012Z,15.80
2018-11-04T16:18:34.554Z,16.20
2018-11-04T16:23:32.034Z,13.90
2018-11-04T16:28:30.332Z,14.30
2018-11-04T16:33:27.862Z,10.67
2018-11-04T16:38:25.327Z,10.53
2018-11-04T16:43:22.850Z,9.73
2018-11-04T16:48:20.224Z,10.83
2018-11-04T16:53:17.661Z,9.70
2018-11-04T16:58:15.141Z,12.10
2018-11-04T17:03:12.598Z,10.40
2018-11-04T17:08:10.109Z,10.10
2018-11-04T17:13:07.580Z,9.43
2018-11-04T17:18:05.173Z,9.60
2018-11-04T17:23:02.716Z,11.70
2018-11-04T17:28:00.213Z,9.40
2018-11-04T17:32:57.696Z,9.73
2018-11-04T17:37:55.349Z,9.50
2018-11-04T17:42:53.029Z,10.43
2018-11-04T17:47:50.549Z,9.70
2018-11-04T17:52:48.019Z,8.67
2018-11-04T17:57:45.535Z,8.93
2018-11-04T18:02:43.303Z,9.00
2018-11-04T18:07:41.440Z,8.67
2018-11-04T18:12:38.865Z,8.97
2018-11-04T18:17:36.318Z,8.00
2018-11-04T18:22:34.824Z,9.10
2018-11-04T18:27:32.273Z,8.53
2018-11-04T18:32:29.759Z,7.47
2018-11-04T18:37:27.373Z,8.20
2018-11-04T18:42:24.942Z,8.33
2018-11-04T18:47:22.488Z,8.33
2018-11-04T18:52:19.997Z,7.50
2018-11-04T18:57:17.541Z,7.63
2018-11-04T19:02:14.970Z,9.10
2018-11-04T19:07:12.450Z,8.23
2018-11-04T19:12:09.944Z,8.50
2018-11-04T19:17:07.374Z,7.53
2018-11-04T19:22:04.986Z,8.33
2018-11-04T19:27:02.521Z,8.50
2018-11-04T19:31:59.969Z,7.83
2018-11-04T19:36:57.466Z,8.20
2018-11-04T19:41:54.921Z,8.10
2018-11-04T19:46:53.094Z,8.83
2018-11-04T19:51:50.636Z,8.37
2018-11-04T19:56:48.161Z,8.13
2018-11-04T20:01:45.541Z,7.80
2018-11-04T20:06:45.309Z,7.83
2018-11-04T20:11:43.413Z,8.97
2018-11-04T20:16:42.021Z,9.10
2018-11-04T20:21:39.581Z,10.20
2018-11-04T20:26:37.001Z,9.50
2018-11-04T20:31:40.120Z,10.47
2018-11-04T20:36:37.684Z,9.93
2018-11-04T20:41:35.180Z,10.70
2018-11-04T20:46:33.886Z,10.43
2018-11-04T20:51:31.366Z,9.70
2018-11-04T20:56:34.320Z,12.27
2018-11-04T21:01:31.860Z,9.33
2018-11-04T21:06:29.380Z,9.43
2018-11-04T21:11:27.090Z,10.57
2018-11-04T21:16:26.469Z,10.47
2018-11-04T21:21:24.012Z,10.87
2018-11-04T21:26:21.775Z,10.67
2018-11-04T21:31:21.166Z,11.00
2018-11-04T21:36:21.476Z,10.50
2018-11-04T21:41:19.109Z,11.00
2018-11-04T21:46:23.494Z,10.57
2018-11-04T21:51:21.055Z,11.53
2018-11-04T21:56:18.506Z,11.30
2018-11-04T22:01:15.985Z,11.57
2018-11-04T22:06:13.453Z,11.20
2018-11-04T22:11:10.896Z,10.67
2018-11-04T22:16:12.541Z,10.50
2018-11-04T22:21:10.059Z,9.80
2018-11-04T22:26:07.567Z,11.43
2018-11-04T22:31:05.024Z,10.30
2018-11-04T22:36:02.501Z,11.60
2018-11-04T22:40:59.975Z,12.50
2018-11-04T22:46:06.457Z,10.93
2018-11-04T22:51:03.929Z,12.47
2018-11-04T22:56:01.417Z,13.27
2018-11-04T23:00:59.887Z,12.80
2018-11-04T23:06:01.837Z,12.00
2018-11-04T23:10:59.286Z,12.20
2018-11-04T23:16:00.703Z,11.63
2018-11-04T23:20:58.203Z,13.87
2018-11-04T23:25:55.651Z,12.60
2018-11-04T23:30:53.117Z,12.27
2018-11-04T23:35:50.552Z,12.60
2018-11-04T23:40:48.150Z,12.00
2018-11-04T23:45:47.552Z,12.73
2018-11-04T23:50:50.180Z,13.17
2018-11-04T23:55:47.606Z,13.50
